createdAt,value
2023-02-12T00:02:11.393Z,26.35
2023-02-12T00:06:33.301Z,28.80
2023-02-12T00:10:59.029Z,28.10
2023-02-12T00:15:23.589Z,28.52
2023-02-12T00:19:48.564Z,27.73
2023-02-12T00:24:10.560Z,28.25
2023-02-12T00:28:32.538Z,29.48
2023-02-12T00:32:55.082Z,28.80
2023-02-12T00:37:17.929Z,29.35
2023-02-12T00:41:39.941Z,31.42
2023-02-12T00:46:02.614Z,30.10
2023-02-12T00:50:25.051Z,31.40
2023-02-12T00:54:47.385Z,32.28
2023-02-12T00:59:09.461Z,29.27
2023-02-12T01:03:34.200Z,30.02
2023-02-12T01:07:57.263Z,31.40
2023-02-12T01:12:19.568Z,32.28
2023-02-12T01:16:41.906Z,30.13
2023-02-12T01:21:17.507Z,31.48
2023-02-12T01:25:39.798Z,30.45
2023-02-12T01:30:02.184Z,31.25
2023-02-12T01:34:24.159Z,30.63
2023-02-12T01:38:48.546Z,30.25
2023-02-12T01:43:13.825Z,31.45
2023-02-12T01:47:35.670Z,30.73
2023-02-12T01:52:32.133Z,31.33
2023-02-12T01:56:54.506Z,31.08
2023-02-12T02:01:25.420Z,30.38
2023-02-12T02:06:00.426Z,32.58
2023-02-12T02:10:22.613Z,32.80
2023-02-12T02:14:45.803Z,35.15
2023-02-12T02:19:28.754Z,33.20
2023-02-12T02:24:08.305Z,32.28
2023-02-12T02:28:58.148Z,32.35
2023-02-12T02:33:33.925Z,30.63
2023-02-12T02:38:23.641Z,33.22
2023-02-12T02:43:19.504Z,33.80
2023-02-12T02:48:02.420Z,34.13
2023-02-12T02:52:46.046Z,32.05
2023-02-12T02:57:20.000Z,32.05
2023-02-12T03:01:56.172Z,32.15
2023-02-12T03:06:46.563Z,35.72
2023-02-12T03:11:19.540Z,32.92
2023-02-12T03:16:06.023Z,32.22
2023-02-12T03:20:41.672Z,31.95
2023-02-12T03:25:15.543Z,31.23
2023-02-12T03:29:37.942Z,33.20
2023-02-12T03:34:44.848Z,33.67
2023-02-12T03:39:37.644Z,32.65
2023-02-12T03:44:36.306Z,31.92
2023-02-12T03:49:15.649Z,33.00
2023-02-12T03:53:38.027Z,33.53
2023-02-12T03:58:03.571Z,34.42
2023-02-12T04:02:25.844Z,35.25
2023-02-12T04:06:50.282Z,35.58
2023-02-12T04:11:26.182Z,33.50
2023-02-12T04:16:04.124Z,32.83
2023-02-12T04:21:19.278Z,33.42
2023-02-12T04:25:53.971Z,33.25
2023-02-12T04:30:24.375Z,32.97
2023-02-12T04:35:25.982Z,31.15
2023-02-12T04:39:50.109Z,29.63
2023-02-12T04:44:27.326Z,29.50
2023-02-12T04:48:59.055Z,29.95
2023-02-12T04:53:21.064Z,31.83
2023-02-12T04:57:43.251Z,32.13
2023-02-12T05:02:05.506Z,32.38
2023-02-12T05:06:27.665Z,30.45
2023-02-12T05:10:49.984Z,30.08
2023-02-12T05:15:12.345Z,31.35
2023-02-12T05:19:34.463Z,31.17
2023-02-12T05:23:56.350Z,29.20
2023-02-12T05:28:18.280Z,32.80
2023-02-12T05:32:41.755Z,31.65
2023-02-12T05:37:03.968Z,31.40
2023-02-12T05:41:26.339Z,27.83
2023-02-12T05:45:48.424Z,30.23
2023-02-12T05:50:11.284Z,30.50
2023-02-12T05:54:33.120Z,77.80
2023-02-12T05:59:07.670Z,31.77
2023-02-12T06:03:29.680Z,27.67
2023-02-12T06:07:51.560Z,26.88
2023-02-12T06:12:13.680Z,27.45
2023-02-12T06:16:36.238Z,25.08
2023-02-12T06:20:58.507Z,26.40
2023-02-12T06:25:21.418Z,28.15
2023-02-12T06:29:43.587Z,28.70
2023-02-12T06:34:10.377Z,29.55
2023-02-12T06:38:34.990Z,29.90
2023-02-12T06:42:56.991Z,28.85
2023-02-12T06:47:18.885Z,28.63
2023-02-12T06:51:41.931Z,27.85
2023-02-12T06:56:07.265Z,28.08
2023-02-12T07:00:29.278Z,27.73
2023-02-12T07:04:51.768Z,27.50
2023-02-12T07:09:13.823Z,27.00
2023-02-12T07:13:36.424Z,27.83
2023-02-12T07:17:58.384Z,29.58
2023-02-12T07:22:22.366Z,26.98
2023-02-12T07:26:44.734Z,28.02
2023-02-12T07:31:18.956Z,28.70
2023-02-12T07:35:41.407Z,26.27
2023-02-12T07:40:04.004Z,26.85
2023-02-12T07:44:26.211Z,27.02
2023-02-12T07:48:49.026Z,26.02
2023-02-12T07:53:11.267Z,25.13
2023-02-12T07:57:34.936Z,26.65
2023-02-12T08:01:57.373Z,27.85
2023-02-12T08:06:23.692Z,26.88
2023-02-12T08:10:45.508Z,25.33
2023-02-12T08:15:08.216Z,28.38
2023-02-12T08:19:30.478Z,25.08
2023-02-12T08:23:55.878Z,22.23
2023-02-12T08:28:17.808Z,21.35
2023-02-12T08:32:39.714Z,22.17
2023-02-12T08:37:02.108Z,18.30
2023-02-12T08:41:28.333Z,17.40
2023-02-12T08:45:50.481Z,16.10
2023-02-12T08:50:12.969Z,17.13
2023-02-12T08:54:35.280Z,15.50
2023-02-12T08:59:02.150Z,15.10
2023-02-12T09:03:23.930Z,15.70
2023-02-12T09:07:46.118Z,13.50
2023-02-12T09:12:08.078Z,15.80
2023-02-12T09:16:36.230Z,15.77
2023-02-12T09:21:08.642Z,15.18
2023-02-12T09:25:30.741Z,15.65
2023-02-12T09:29:52.760Z,13.45
2023-02-12T09:34:14.680Z,14.35
2023-02-12T09:38:37.097Z,15.02
2023-02-12T09:43:03.873Z,12.25
2023-02-12T09:47:47.078Z,13.35
2023-02-12T09:52:19.744Z,13.93
2023-02-12T09:56:50.031Z,13.98
2023-02-12T10:01:15.415Z,32.38
2023-02-12T10:06:06.216Z,63.75
2023-02-12T10:10:44.009Z,15.30
2023-02-12T10:15:19.678Z,12.95
2023-02-12T10:20:02.691Z,13.40
2023-02-12T10:24:53.399Z,14.52
2023-02-12T10:29:25.140Z,17.40
2023-02-12T10:33:49.697Z,17.85
2023-02-12T10:38:33.822Z,17.40
2023-02-12T10:42:58.221Z,19.45
2023-02-12T10:47:26.591Z,19.95
2023-02-12T10:52:19.922Z,18.88
2023-02-12T10:56:42.090Z,15.77
2023-02-12T11:01:05.255Z,15.23
2023-02-12T11:05:31.514Z,14.80
2023-02-12T11:09:56.269Z,13.43
2023-02-12T11:14:23.086Z,13.15
2023-02-12T11:18:45.271Z,11.07
2023-02-12T11:23:38.235Z,17.27
2023-02-12T11:28:01.714Z,9.60
2023-02-12T11:32:24.130Z,11.20
2023-02-12T11:36:54.297Z,12.50
2023-02-12T11:41:50.025Z,13.80
2023-02-12T11:46:22.436Z,13.32
2023-02-12T11:50:49.151Z,13.18
2023-02-12T11:55:31.026Z,13.02
2023-02-12T11:59:56.668Z,12.52
2023-02-12T12:04:23.245Z,10.48
2023-02-12T12:09:04.393Z,10.27
2023-02-12T12:13:37.610Z,11.77
2023-02-12T12:18:43.376Z,11.85
2023-02-12T12:23:20.703Z,11.45
2023-02-12T12:28:04.069Z,11.75
2023-02-12T12:32:29.757Z,12.77
2023-02-12T12:37:12.216Z,14.27
2023-02-12T12:41:58.766Z,13.88
2023-02-12T12:46:38.242Z,14.90
2023-02-12T12:51:35.347Z,15.13
2023-02-12T12:56:21.547Z,15.45
2023-02-12T13:01:08.225Z,16.88
2023-02-12T13:05:55.121Z,15.68
2023-02-12T13:10:50.884Z,14.73
2023-02-12T13:15:31.145Z,16.10
2023-02-12T13:20:14.350Z,14.57
2023-02-12T13:25:06.805Z,12.35
2023-02-12T13:29:37.297Z,11.85
2023-02-12T13:34:05.955Z,12.07
2023-02-12T13:38:40.768Z,13.75
2023-02-12T13:43:57.506Z,12.45
2023-02-12T13:48:36.257Z,13.82
2023-02-12T13:53:48.277Z,12.75
2023-02-12T13:58:37.689Z,14.38
2023-02-12T14:03:09.778Z,15.77
2023-02-12T14:07:52.522Z,16.88
2023-02-12T14:12:26.826Z,18.67
2023-02-12T14:16:49.916Z,17.67
2023-02-12T14:21:36.037Z,17.83
2023-02-12T14:26:00.851Z,17.50
2023-02-12T14:30:40.487Z,17.27
2023-02-12T14:35:42.445Z,17.55
2023-02-12T14:40:40.781Z,17.48
2023-02-12T14:46:16.149Z,17.98
2023-02-12T14:50:52.909Z,19.73
2023-02-12T14:55:30.855Z,17.73
2023-02-12T15:00:27.832Z,18.38
2023-02-12T15:04:52.946Z,19.30
2023-02-12T15:09:39.958Z,19.27
2023-02-12T15:14:13.190Z,15.57
2023-02-12T15:18:41.231Z,17.63
2023-02-12T15:23:24.094Z,15.98
2023-02-12T15:27:49.758Z,20.17
2023-02-12T15:32:29.870Z,14.75
2023-02-12T15:36:52.301Z,14.52
2023-02-12T15:41:39.794Z,15.57
2023-02-12T15:46:06.916Z,18.88
2023-02-12T15:50:31.485Z,24.35
2023-02-12T15:54:53.772Z,24.60
2023-02-12T15:59:29.081Z,24.30
2023-02-12T16:03:55.626Z,20.30
2023-02-12T16:08:22.160Z,19.10
2023-02-12T16:12:45.931Z,22.40
2023-02-12T16:17:25.761Z,21.58
2023-02-12T16:22:16.357Z,21.35
2023-02-12T16:26:38.515Z,20.88
2023-02-12T16:31:14.359Z,20.95
2023-02-12T16:35:36.291Z,22.90
2023-02-12T16:40:13.209Z,22.15
2023-02-12T16:44:35.111Z,23.92
2023-02-12T16:49:00.904Z,22.83
2023-02-12T16:53:34.071Z,23.63
2023-02-12T16:57:56.256Z,26.48
2023-02-12T17:02:18.155Z,25.85
2023-02-12T17:06:40.233Z,24.63
2023-02-12T17:11:02.114Z,23.95
2023-02-12T17:15:30.517Z,24.25
2023-02-12T17:19:53.445Z,25.67
2023-02-12T17:24:34.500Z,24.65
2023-02-12T17:29:07.342Z,25.75
2023-02-12T17:33:29.793Z,30.40
2023-02-12T17:37:51.828Z,27.60
2023-02-12T17:42:13.987Z,24.60
2023-02-12T17:46:36.298Z,25.40
2023-02-12T17:50:58.566Z,26.33
2023-02-12T17:55:20.815Z,26.40
2023-02-12T17:59:43.115Z,25.50
2023-02-12T18:04:05.608Z,23.45
2023-02-12T18:08:28.656Z,27.20
2023-02-12T18:12:50.926Z,26.27
2023-02-12T18:17:13.100Z,25.35
2023-02-12T18:21:35.363Z,24.17
2023-02-12T18:25:57.316Z,25.75
2023-02-12T18:30:19.701Z,23.33
2023-02-12T18:34:43.837Z,26.20
2023-02-12T18:39:06.060Z,24.08
2023-02-12T18:43:28.253Z,25.98
2023-02-12T18:47:50.255Z,25.45
2023-02-12T18:52:12.575Z,23.85
2023-02-12T18:56:40.179Z,23.17
2023-02-12T19:01:12.151Z,23.95
2023-02-12T19:05:34.354Z,26.23
2023-02-12T19:09:56.312Z,28.13
2023-02-12T19:14:20.897Z,27.00
2023-02-12T19:18:43.254Z,26.52
2023-02-12T19:23:06.302Z,26.38
2023-02-12T19:27:28.396Z,27.20
2023-02-12T19:31:50.458Z,28.27
2023-02-12T19:36:18.258Z,27.13
2023-02-12T19:40:40.814Z,27.27
2023-02-12T19:45:02.837Z,25.95
2023-02-12T19:49:28.169Z,27.65
2023-02-12T19:53:50.099Z,28.65
2023-02-12T19:58:12.568Z,31.00
2023-02-12T20:02:34.876Z,29.42
2023-02-12T20:06:57.276Z,32.80
2023-02-12T20:11:26.323Z,30.77
2023-02-12T20:15:48.295Z,32.55
2023-02-12T20:20:13.268Z,33.67
2023-02-12T20:24:35.734Z,36.75
2023-02-12T20:28:58.993Z,34.83
2023-02-12T20:33:21.790Z,35.25
2023-02-12T20:37:46.296Z,39.10
2023-02-12T20:42:08.279Z,37.08
2023-02-12T20:46:30.919Z,36.85
2023-02-12T20:50:52.974Z,35.22
2023-02-12T20:55:15.218Z,36.85
2023-02-12T20:59:37.393Z,35.30
2023-02-12T21:04:05.263Z,35.33
2023-02-12T21:08:27.607Z,35.58
2023-02-12T21:12:49.539Z,35.13
2023-02-12T21:17:11.460Z,35.85
2023-02-12T21:21:39.289Z,34.20
2023-02-12T21:26:06.982Z,34.33
2023-02-12T21:30:29.647Z,35.45
2023-02-12T21:34:52.808Z,36.35
2023-02-12T21:39:25.026Z,35.88
2023-02-12T21:43:51.724Z,34.70
2023-02-12T21:48:13.944Z,36.45
2023-02-12T21:52:36.003Z,36.88
2023-02-12T21:56:59.388Z,34.05
2023-02-12T22:01:28.162Z,35.97
2023-02-12T22:05:50.050Z,35.28
2023-02-12T22:10:12.126Z,35.40
2023-02-12T22:14:33.919Z,35.78
2023-02-12T22:19:00.536Z,37.63
2023-02-12T22:23:22.973Z,35.03
2023-02-12T22:27:45.100Z,35.60
2023-02-12T22:32:07.436Z,34.72
2023-02-12T22:36:30.712Z,34.65
2023-02-12T22:40:53.540Z,35.67
2023-02-12T22:45:16.011Z,36.85
2023-02-12T22:49:38.386Z,33.30
2023-02-12T22:54:01.512Z,35.53
2023-02-12T22:58:23.768Z,41.38
2023-02-12T23:02:45.823Z,34.13
2023-02-12T23:07:07.867Z,33.65
2023-02-12T23:11:31.770Z,34.58
2023-02-12T23:15:55.296Z,34.20
2023-02-12T23:20:17.771Z,32.90
2023-02-12T23:24:39.614Z,31.60
2023-02-12T23:29:01.628Z,32.30
2023-02-12T23:33:25.045Z,31.70
2023-02-12T23:37:46.878Z,31.95
2023-02-12T23:42:09.120Z,31.55
2023-02-12T23:46:31.448Z,31.52
2023-02-12T23:50:53.589Z,32.05
2023-02-12T23:55:18.258Z,29.90
2023-02-12T23:59:40.441Z,30.25
